DLH51A EDDF-LOWS
Flight info
| Callsign | DLH51A |
|---|---|
| Flight time | 0h 43m |
| Altitude | 27000 |
| Route | CINDY8S/18 CINDY Z74 HAREM DCT ASLEP DCT TAKUT DCT DINKU L603 OLETU T702 BADIT BADIT2R |
| Aircraft | A320/M-SDE2E3FGIJ1LORWXYZ/HB1 |
Departure
| Time | 2026-05-04 19:16 |
|---|---|
| Airport | Frankfurt Main Airport (EDDF) |
Arrival
| Time | 2026-05-04 19:59 |
|---|---|
| Airport | Salzburg Airport (LOWS) |
| Time | Latitude | Longitude | Altitude | Speed | Heading |
|---|---|---|---|---|---|
| 2026-05-04 18:29 | 50.04920 | 8.59186 | 365 ft | 0 kts | 340° |
| 2026-05-04 19:00 | 50.04913 | 8.59190 | 365 ft | 4 kts | 340° |
| 2026-05-04 19:00 | 50.04888 | 8.59204 | 369 ft | 4 kts | 340° |
| 2026-05-04 19:00 | 50.04862 | 8.59219 | 369 ft | 4 kts | 340° |
| 2026-05-04 19:01 | 50.04844 | 8.59229 | 368 ft | 0 kts | 340° |
| 2026-05-04 19:04 | 50.04845 | 8.59230 | 369 ft | 0 kts | 351° |
| 2026-05-04 19:04 | 50.04848 | 8.59236 | 371 ft | 1 kts | 42° |
| 2026-05-04 19:05 | 50.04851 | 8.59276 | 368 ft | 5 kts | 83° |
| 2026-05-04 19:05 | 50.04873 | 8.59374 | 370 ft | 10 kts | 61° |
| 2026-05-04 19:05 | 50.04933 | 8.59400 | 371 ft | 14 kts | 342° |
| 2026-05-04 19:05 | 50.05046 | 8.59336 | 362 ft | 16 kts | 339° |
| 2026-05-04 19:06 | 50.05098 | 8.59192 | 359 ft | 18 kts | 257° |
| 2026-05-04 19:06 | 50.05051 | 8.58996 | 362 ft | 20 kts | 249° |
| 2026-05-04 19:06 | 50.05017 | 8.58855 | 364 ft | 22 kts | 250° |
| 2026-05-04 19:06 | 50.04944 | 8.58551 | 364 ft | 24 kts | 249° |
| 2026-05-04 19:07 | 50.04886 | 8.58304 | 365 ft | 25 kts | 250° |
| 2026-05-04 19:07 | 50.04823 | 8.58045 | 361 ft | 23 kts | 250° |
| 2026-05-04 19:07 | 50.04764 | 8.57927 | 358 ft | 15 kts | 189° |
| 2026-05-04 19:07 | 50.04690 | 8.57828 | 359 ft | 17 kts | 250° |
| 2026-05-04 19:08 | 50.04645 | 8.57636 | 358 ft | 21 kts | 250° |
| 2026-05-04 19:08 | 50.04610 | 8.57485 | 361 ft | 23 kts | 251° |
| 2026-05-04 19:08 | 50.04551 | 8.57249 | 364 ft | 24 kts | 249° |
| 2026-05-04 19:08 | 50.04492 | 8.56996 | 358 ft | 26 kts | 250° |
| 2026-05-04 19:09 | 50.04432 | 8.56738 | 360 ft | 26 kts | 250° |
| 2026-05-04 19:09 | 50.04364 | 8.56462 | 359 ft | 28 kts | 250° |
| 2026-05-04 19:09 | 50.04300 | 8.56194 | 357 ft | 18 kts | 249° |
| 2026-05-04 19:09 | 50.04260 | 8.56025 | 362 ft | 6 kts | 250° |
| 2026-05-04 19:10 | 50.04256 | 8.56009 | 354 ft | 0 kts | 249° |
| 2026-05-04 19:11 | 50.04255 | 8.56004 | 354 ft | 4 kts | 249° |
| 2026-05-04 19:11 | 50.04222 | 8.55871 | 362 ft | 19 kts | 249° |
| 2026-05-04 19:11 | 50.04173 | 8.55663 | 355 ft | 22 kts | 250° |
| 2026-05-04 19:12 | 50.04113 | 8.55408 | 353 ft | 26 kts | 249° |
| 2026-05-04 19:12 | 50.03982 | 8.54866 | 354 ft | 28 kts | 250° |
| 2026-05-04 19:12 | 50.03912 | 8.54573 | 352 ft | 28 kts | 249° |
| 2026-05-04 19:13 | 50.03850 | 8.54348 | 353 ft | 22 kts | 236° |
| 2026-05-04 19:13 | 50.03777 | 8.54125 | 350 ft | 24 kts | 249° |
| 2026-05-04 19:13 | 50.03717 | 8.53878 | 353 ft | 25 kts | 250° |
| 2026-05-04 19:13 | 50.03654 | 8.53617 | 344 ft | 27 kts | 248° |
| 2026-05-04 19:14 | 50.03585 | 8.53339 | 335 ft | 28 kts | 250° |
| 2026-05-04 19:14 | 50.03515 | 8.53043 | 336 ft | 30 kts | 249° |
| 2026-05-04 19:14 | 50.03451 | 8.52798 | 335 ft | 25 kts | 247° |
| 2026-05-04 19:14 | 50.03397 | 8.52620 | 333 ft | 17 kts | 224° |
| 2026-05-04 19:15 | 50.03266 | 8.52594 | 334 ft | 22 kts | 179° |
| 2026-05-04 19:15 | 50.02944 | 8.52598 | 335 ft | 82 kts | 179° |
| 2026-05-04 19:15 | 50.02161 | 8.52605 | 335 ft | 143 kts | 180° |
| 2026-05-04 19:15 | 50.01036 | 8.52622 | 649 ft | 166 kts | 181° |
| 2026-05-04 19:16 | 49.99890 | 8.52635 | 1443 ft | 164 kts | 180° |
| 2026-05-04 19:16 | 49.98694 | 8.52637 | 1945 ft | 182 kts | 181° |
| 2026-05-04 19:16 | 49.97367 | 8.52810 | 2355 ft | 204 kts | 162° |
| 2026-05-04 19:16 | 49.96146 | 8.54096 | 2733 ft | 226 kts | 127° |
| 2026-05-04 19:17 | 49.95327 | 8.56254 | 3452 ft | 234 kts | 119° |
| 2026-05-04 19:17 | 49.94546 | 8.58469 | 4459 ft | 234 kts | 118° |
| 2026-05-04 19:17 | 49.94050 | 8.60892 | 5305 ft | 244 kts | 99° |
| 2026-05-04 19:17 | 49.93915 | 8.63655 | 5817 ft | 267 kts | 95° |
| 2026-05-04 19:18 | 49.93740 | 8.66568 | 6613 ft | 274 kts | 105° |
| 2026-05-04 19:18 | 49.93061 | 8.69331 | 7473 ft | 276 kts | 124° |
| 2026-05-04 19:18 | 49.91841 | 8.71611 | 8371 ft | 276 kts | 143° |
| 2026-05-04 19:18 | 49.90288 | 8.73375 | 9289 ft | 278 kts | 148° |
| 2026-05-04 19:19 | 49.88776 | 8.75286 | 10180 ft | 285 kts | 137° |
| 2026-05-04 19:19 | 49.87556 | 8.77798 | 10818 ft | 303 kts | 124° |
| 2026-05-04 19:19 | 49.86477 | 8.80745 | 11187 ft | 324 kts | 122° |
| 2026-05-04 19:19 | 49.85364 | 8.83851 | 11858 ft | 333 kts | 122° |
| 2026-05-04 19:20 | 49.84239 | 8.87014 | 12657 ft | 338 kts | 122° |
| 2026-05-04 19:20 | 49.83094 | 8.90219 | 13454 ft | 342 kts | 122° |
| 2026-05-04 19:20 | 49.81926 | 8.93464 | 14178 ft | 347 kts | 122° |
| 2026-05-04 19:20 | 49.80740 | 8.96735 | 14878 ft | 351 kts | 122° |
| 2026-05-04 19:21 | 49.79534 | 9.00038 | 15575 ft | 354 kts | 123° |
| 2026-05-04 19:21 | 49.78313 | 9.03368 | 16271 ft | 358 kts | 123° |
| 2026-05-04 19:21 | 49.77083 | 9.06735 | 16955 ft | 362 kts | 122° |
| 2026-05-04 19:21 | 49.76055 | 9.10319 | 17652 ft | 368 kts | 111° |
| 2026-05-04 19:22 | 49.75393 | 9.14176 | 18328 ft | 373 kts | 108° |
| 2026-05-04 19:22 | 49.74500 | 9.17933 | 18900 ft | 373 kts | 119° |
| 2026-05-04 19:22 | 49.73161 | 9.21357 | 19492 ft | 373 kts | 130° |
| 2026-05-04 19:22 | 49.71488 | 9.24418 | 20081 ft | 374 kts | 134° |
| 2026-05-04 19:23 | 49.69765 | 9.27450 | 20666 ft | 377 kts | 135° |
| 2026-05-04 19:23 | 49.68026 | 9.30510 | 21250 ft | 380 kts | 135° |
| 2026-05-04 19:23 | 49.66275 | 9.33595 | 21819 ft | 383 kts | 135° |
| 2026-05-04 19:23 | 49.64514 | 9.36704 | 22379 ft | 387 kts | 135° |
| 2026-05-04 19:24 | 49.62803 | 9.39938 | 22918 ft | 393 kts | 128° |
| 2026-05-04 19:24 | 49.61443 | 9.43630 | 23451 ft | 401 kts | 117° |
| 2026-05-04 19:24 | 49.60483 | 9.47706 | 23892 ft | 407 kts | 111° |
| 2026-05-04 19:24 | 49.59599 | 9.51864 | 24316 ft | 410 kts | 111° |
| 2026-05-04 19:25 | 49.58701 | 9.56062 | 24749 ft | 413 kts | 112° |
| 2026-05-04 19:25 | 49.57807 | 9.60221 | 25184 ft | 416 kts | 112° |
| 2026-05-04 19:25 | 49.56893 | 9.64463 | 25610 ft | 419 kts | 112° |
| 2026-05-04 19:25 | 49.55971 | 9.68731 | 26019 ft | 421 kts | 112° |
| 2026-05-04 19:26 | 49.55038 | 9.73026 | 26422 ft | 424 kts | 112° |
| 2026-05-04 19:26 | 49.54099 | 9.77341 | 26837 ft | 427 kts | 112° |
| 2026-05-04 19:26 | 49.53073 | 9.81610 | 26952 ft | 421 kts | 119° |
| 2026-05-04 19:26 | 49.51666 | 9.85413 | 26970 ft | 398 kts | 129° |
| 2026-05-04 19:27 | 49.49961 | 9.88748 | 26975 ft | 388 kts | 133° |
| 2026-05-04 19:27 | 49.48283 | 9.91919 | 26983 ft | 387 kts | 133° |
| 2026-05-04 19:27 | 49.46566 | 9.95159 | 26982 ft | 386 kts | 133° |
| 2026-05-04 19:27 | 49.44869 | 9.98359 | 26967 ft | 386 kts | 133° |
| 2026-05-04 19:28 | 49.43196 | 10.01512 | 26972 ft | 386 kts | 133° |
| 2026-05-04 19:28 | 49.41505 | 10.04708 | 26971 ft | 386 kts | 133° |
| 2026-05-04 19:28 | 49.39793 | 10.07946 | 26969 ft | 386 kts | 133° |
| 2026-05-04 19:28 | 49.38101 | 10.11141 | 26968 ft | 386 kts | 133° |
| 2026-05-04 19:29 | 49.36409 | 10.14328 | 26966 ft | 385 kts | 133° |
| 2026-05-04 19:29 | 49.34718 | 10.17511 | 26968 ft | 385 kts | 133° |
| 2026-05-04 19:29 | 49.33026 | 10.20698 | 26972 ft | 385 kts | 133° |
| 2026-05-04 19:29 | 49.31333 | 10.23876 | 26972 ft | 385 kts | 133° |
| 2026-05-04 19:30 | 49.29640 | 10.27043 | 26957 ft | 385 kts | 133° |
| 2026-05-04 19:30 | 49.27941 | 10.30209 | 26952 ft | 385 kts | 133° |
| 2026-05-04 19:30 | 49.26242 | 10.33376 | 26955 ft | 385 kts | 133° |
| 2026-05-04 19:30 | 49.24544 | 10.36544 | 26973 ft | 385 kts | 133° |
| 2026-05-04 19:31 | 49.22786 | 10.39535 | 26969 ft | 382 kts | 139° |
| 2026-05-04 19:31 | 49.20886 | 10.42378 | 26981 ft | 382 kts | 139° |
| 2026-05-04 19:31 | 49.18983 | 10.45216 | 26981 ft | 382 kts | 140° |
| 2026-05-04 19:31 | 49.17078 | 10.48046 | 26983 ft | 382 kts | 140° |
| 2026-05-04 19:32 | 49.15168 | 10.50875 | 26988 ft | 382 kts | 140° |
| 2026-05-04 19:32 | 49.13260 | 10.53696 | 26987 ft | 382 kts | 140° |
| 2026-05-04 19:32 | 49.11353 | 10.56517 | 26985 ft | 382 kts | 140° |
| 2026-05-04 19:32 | 49.09447 | 10.59346 | 26986 ft | 382 kts | 140° |
| 2026-05-04 19:33 | 49.07543 | 10.62170 | 26985 ft | 382 kts | 140° |
| 2026-05-04 19:33 | 49.05636 | 10.64992 | 26968 ft | 382 kts | 139° |
| 2026-05-04 19:33 | 49.03728 | 10.67810 | 26968 ft | 382 kts | 139° |
| 2026-05-04 19:33 | 49.01818 | 10.70624 | 26967 ft | 382 kts | 139° |
| 2026-05-04 19:34 | 48.99904 | 10.73431 | 26970 ft | 382 kts | 139° |
| 2026-05-04 19:34 | 48.97992 | 10.76235 | 26974 ft | 382 kts | 139° |
| 2026-05-04 19:34 | 48.96079 | 10.79038 | 26966 ft | 382 kts | 139° |
| 2026-05-04 19:34 | 48.94168 | 10.81838 | 26966 ft | 381 kts | 139° |
| 2026-05-04 19:35 | 48.92256 | 10.84638 | 26962 ft | 381 kts | 139° |
| 2026-05-04 19:35 | 48.90346 | 10.87434 | 26960 ft | 381 kts | 139° |
| 2026-05-04 19:35 | 48.88435 | 10.90230 | 26957 ft | 381 kts | 139° |
| 2026-05-04 19:35 | 48.86523 | 10.93026 | 26948 ft | 381 kts | 139° |
| 2026-05-04 19:36 | 48.84611 | 10.95820 | 26948 ft | 381 kts | 139° |
| 2026-05-04 19:36 | 48.82702 | 10.98609 | 26931 ft | 381 kts | 139° |
| 2026-05-04 19:36 | 48.80790 | 11.01395 | 26829 ft | 379 kts | 139° |
| 2026-05-04 19:36 | 48.78906 | 11.04139 | 26572 ft | 374 kts | 139° |
| 2026-05-04 19:37 | 48.77038 | 11.06855 | 26313 ft | 371 kts | 139° |
| 2026-05-04 19:37 | 48.75179 | 11.09550 | 26062 ft | 369 kts | 139° |
| 2026-05-04 19:37 | 48.73328 | 11.12229 | 25810 ft | 367 kts | 139° |
| 2026-05-04 19:37 | 48.71483 | 11.14899 | 25568 ft | 366 kts | 139° |
| 2026-05-04 19:38 | 48.69649 | 11.17549 | 25325 ft | 364 kts | 139° |
| 2026-05-04 19:38 | 48.67815 | 11.20195 | 25083 ft | 363 kts | 139° |
| 2026-05-04 19:38 | 48.65993 | 11.22823 | 24844 ft | 362 kts | 139° |
| 2026-05-04 19:38 | 48.64220 | 11.25521 | 24601 ft | 362 kts | 133° |
| 2026-05-04 19:39 | 48.62684 | 11.28545 | 24372 ft | 362 kts | 130° |
| 2026-05-04 19:39 | 48.61175 | 11.31594 | 24137 ft | 361 kts | 130° |
| 2026-05-04 19:39 | 48.59675 | 11.34619 | 23879 ft | 358 kts | 130° |
| 2026-05-04 19:39 | 48.58186 | 11.37617 | 23455 ft | 356 kts | 130° |
| 2026-05-04 19:40 | 48.56700 | 11.40599 | 22949 ft | 354 kts | 130° |
| 2026-05-04 19:40 | 48.55221 | 11.43561 | 22490 ft | 352 kts | 130° |
| 2026-05-04 19:40 | 48.53753 | 11.46501 | 22041 ft | 350 kts | 130° |
| 2026-05-04 19:40 | 48.52290 | 11.49426 | 21607 ft | 348 kts | 130° |
| 2026-05-04 19:41 | 48.50836 | 11.52326 | 21173 ft | 346 kts | 130° |
| 2026-05-04 19:41 | 48.49387 | 11.55213 | 20737 ft | 345 kts | 130° |
| 2026-05-04 19:41 | 48.47945 | 11.58085 | 20312 ft | 343 kts | 130° |
| 2026-05-04 19:41 | 48.46652 | 11.61110 | 19889 ft | 345 kts | 120° |
| 2026-05-04 19:42 | 48.45756 | 11.64464 | 19528 ft | 345 kts | 112° |
| 2026-05-04 19:42 | 48.44947 | 11.67857 | 19167 ft | 344 kts | 113° |
| 2026-05-04 19:42 | 48.44137 | 11.71233 | 18807 ft | 342 kts | 113° |
| 2026-05-04 19:42 | 48.43327 | 11.74595 | 18449 ft | 340 kts | 112° |
| 2026-05-04 19:43 | 48.42523 | 11.77935 | 18064 ft | 339 kts | 112° |
| 2026-05-04 19:43 | 48.41722 | 11.81259 | 17686 ft | 336 kts | 112° |
| 2026-05-04 19:43 | 48.40924 | 11.84558 | 17331 ft | 334 kts | 113° |
| 2026-05-04 19:43 | 48.40130 | 11.87827 | 16980 ft | 332 kts | 113° |
| 2026-05-04 19:44 | 48.39350 | 11.91034 | 16633 ft | 330 kts | 113° |
| 2026-05-04 19:44 | 48.38566 | 11.94264 | 16306 ft | 327 kts | 113° |
| 2026-05-04 19:44 | 48.37785 | 11.97465 | 15992 ft | 325 kts | 113° |
| 2026-05-04 19:44 | 48.36995 | 12.00688 | 15651 ft | 323 kts | 113° |
| 2026-05-04 19:45 | 48.36228 | 12.03815 | 15304 ft | 322 kts | 113° |
| 2026-05-04 19:45 | 48.35455 | 12.06966 | 14972 ft | 321 kts | 113° |
| 2026-05-04 19:45 | 48.34686 | 12.10105 | 14629 ft | 319 kts | 113° |
| 2026-05-04 19:45 | 48.33920 | 12.13228 | 14275 ft | 318 kts | 114° |
| 2026-05-04 19:46 | 48.33158 | 12.16340 | 13949 ft | 317 kts | 114° |
| 2026-05-04 19:46 | 48.32399 | 12.19441 | 13588 ft | 316 kts | 114° |
| 2026-05-04 19:46 | 48.31640 | 12.22530 | 13237 ft | 314 kts | 114° |
| 2026-05-04 19:46 | 48.30887 | 12.25590 | 12903 ft | 311 kts | 114° |
| 2026-05-04 19:47 | 48.30139 | 12.28625 | 12575 ft | 309 kts | 114° |
| 2026-05-04 19:47 | 48.29394 | 12.31635 | 12243 ft | 306 kts | 114° |
| 2026-05-04 19:47 | 48.28654 | 12.34622 | 11915 ft | 304 kts | 114° |
| 2026-05-04 19:47 | 48.27917 | 12.37592 | 11595 ft | 303 kts | 114° |
| 2026-05-04 19:48 | 48.27184 | 12.40544 | 11278 ft | 301 kts | 114° |
| 2026-05-04 19:48 | 48.26457 | 12.43476 | 10953 ft | 299 kts | 114° |
| 2026-05-04 19:48 | 48.25734 | 12.46392 | 10637 ft | 297 kts | 114° |
| 2026-05-04 19:48 | 48.25012 | 12.49293 | 10327 ft | 296 kts | 114° |
| 2026-05-04 19:49 | 48.24293 | 12.52172 | 10012 ft | 294 kts | 114° |
| 2026-05-04 19:49 | 48.23575 | 12.55038 | 9690 ft | 293 kts | 114° |
| 2026-05-04 19:49 | 48.22861 | 12.57889 | 9366 ft | 291 kts | 114° |
| 2026-05-04 19:49 | 48.22154 | 12.60718 | 9052 ft | 289 kts | 114° |
| 2026-05-04 19:50 | 48.21449 | 12.63529 | 8852 ft | 288 kts | 114° |
| 2026-05-04 19:50 | 48.20745 | 12.66335 | 8710 ft | 287 kts | 114° |
| 2026-05-04 19:50 | 48.20042 | 12.69128 | 8514 ft | 285 kts | 114° |
| 2026-05-04 19:50 | 48.19344 | 12.71890 | 8129 ft | 282 kts | 114° |
| 2026-05-04 19:51 | 48.18649 | 12.74637 | 7715 ft | 281 kts | 113° |
| 2026-05-04 19:51 | 48.17957 | 12.77378 | 7288 ft | 282 kts | 113° |
| 2026-05-04 19:51 | 48.17192 | 12.80068 | 6855 ft | 280 kts | 122° |
| 2026-05-04 19:51 | 48.15941 | 12.82248 | 6385 ft | 272 kts | 143° |
| 2026-05-04 19:52 | 48.14861 | 12.83212 | 6025 ft | 265 kts | 159° |
| 2026-05-04 19:52 | 48.13127 | 12.83911 | 5596 ft | 254 kts | 167° |
| 2026-05-04 19:52 | 48.11417 | 12.84480 | 5319 ft | 248 kts | 167° |
| 2026-05-04 19:52 | 48.09727 | 12.85044 | 4837 ft | 248 kts | 167° |
| 2026-05-04 19:53 | 48.08086 | 12.85590 | 4672 ft | 243 kts | 167° |
| 2026-05-04 19:53 | 48.06442 | 12.86137 | 4566 ft | 237 kts | 167° |
| 2026-05-04 19:53 | 48.04862 | 12.86663 | 4488 ft | 230 kts | 167° |
| 2026-05-04 19:53 | 48.03317 | 12.87177 | 4381 ft | 224 kts | 167° |
| 2026-05-04 19:54 | 48.01818 | 12.87672 | 4281 ft | 218 kts | 167° |
| 2026-05-04 19:54 | 48.00347 | 12.88159 | 4198 ft | 216 kts | 167° |
| 2026-05-04 19:54 | 47.98887 | 12.88646 | 4108 ft | 215 kts | 167° |
| 2026-05-04 19:54 | 47.97432 | 12.89147 | 4016 ft | 214 kts | 164° |
| 2026-05-04 19:55 | 47.96044 | 12.89833 | 3952 ft | 204 kts | 158° |
| 2026-05-04 19:55 | 47.94759 | 12.90613 | 3988 ft | 196 kts | 156° |
| 2026-05-04 19:55 | 47.93518 | 12.91397 | 3975 ft | 189 kts | 156° |
| 2026-05-04 19:55 | 47.92350 | 12.92139 | 3862 ft | 178 kts | 156° |
| 2026-05-04 19:56 | 47.91245 | 12.92842 | 3687 ft | 168 kts | 157° |
| 2026-05-04 19:56 | 47.90208 | 12.93501 | 3491 ft | 158 kts | 157° |
| 2026-05-04 19:56 | 47.89232 | 12.94121 | 3316 ft | 148 kts | 156° |
| 2026-05-04 19:56 | 47.88300 | 12.94712 | 3113 ft | 143 kts | 156° |
| 2026-05-04 19:57 | 47.87386 | 12.95287 | 2904 ft | 142 kts | 156° |
| 2026-05-04 19:57 | 47.86474 | 12.95860 | 2731 ft | 143 kts | 156° |
| 2026-05-04 19:57 | 47.85557 | 12.96440 | 2546 ft | 144 kts | 156° |
| 2026-05-04 19:57 | 47.84635 | 12.97028 | 2365 ft | 144 kts | 156° |
| 2026-05-04 19:58 | 47.83713 | 12.97615 | 2166 ft | 145 kts | 156° |
| 2026-05-04 19:58 | 47.82787 | 12.98199 | 1982 ft | 144 kts | 157° |
| 2026-05-04 19:58 | 47.81867 | 12.98780 | 1791 ft | 143 kts | 157° |
| 2026-05-04 19:58 | 47.80952 | 12.99362 | 1608 ft | 143 kts | 156° |
| 2026-05-04 19:59 | 47.80041 | 12.99951 | 1425 ft | 140 kts | 159° |
| 2026-05-04 19:59 | 47.79270 | 13.00435 | 1422 ft | 96 kts | 156° |
| 2026-05-04 19:59 | 47.78806 | 13.00729 | 1421 ft | 56 kts | 157° |
| 2026-05-04 19:59 | 47.78620 | 13.00847 | 1419 ft | 15 kts | 156° |
| 2026-05-04 20:00 | 47.78552 | 13.00800 | 1423 ft | 11 kts | 244° |
| 2026-05-04 20:00 | 47.78529 | 13.00709 | 1421 ft | 8 kts | 257° |
| 2026-05-04 20:00 | 47.78550 | 13.00624 | 1422 ft | 10 kts | 320° |
| 2026-05-04 20:00 | 47.78636 | 13.00567 | 1421 ft | 15 kts | 337° |
| 2026-05-04 20:01 | 47.78743 | 13.00500 | 1420 ft | 18 kts | 337° |
| 2026-05-04 20:01 | 47.78858 | 13.00427 | 1423 ft | 13 kts | 336° |
| 2026-05-04 20:01 | 47.78936 | 13.00375 | 1420 ft | 11 kts | 325° |
| 2026-05-04 20:01 | 47.78953 | 13.00293 | 1422 ft | 8 kts | 273° |
| 2026-05-04 20:02 | 47.78956 | 13.00209 | 1422 ft | 8 kts | 272° |
| 2026-05-04 20:02 | 47.78982 | 13.00138 | 1422 ft | 8 kts | 328° |
| 2026-05-04 20:02 | 47.79048 | 13.00095 | 1422 ft | 11 kts | 336° |
| 2026-05-04 20:02 | 47.79112 | 13.00054 | 1422 ft | 10 kts | 337° |
| 2026-05-04 20:03 | 47.79152 | 13.00005 | 1422 ft | 7 kts | 287° |
| 2026-05-04 20:03 | 47.79161 | 12.99943 | 1422 ft | 6 kts | 282° |
| 2026-05-04 20:03 | 47.79168 | 12.99892 | 1422 ft | 5 kts | 282° |
| 2026-05-04 20:03 | 47.79171 | 12.99873 | 1422 ft | 0 kts | 282° |